Time;durP1;ratioP1;P1;durP2;ratioP2;P2;SDS_P1;SDS_P2;PMS_P1;PMS_P2;Temp;Humidity;BMP_temperature;BMP_pressure;BME280_temperature;BME280_humidity;BME280_pressure;Samples;Min_cycle;Max_cycle;Signal;HPM_P1;HPM_P2
2022/07/20 00:00:33;;;;;;;7.38;3.08;;;25.50;94.70;;;;;;4961566;28;20042;-57
2022/07/20 00:03:03;;;;;;;8.68;3.28;;;25.50;94.40;;;;;;4962175;28;20030;-57
2022/07/20 00:05:29;;;;;;;6.97;3.28;;;25.50;94.40;;;;;;4962171;28;20043;-57
2022/07/20 00:07:55;;;;;;;8.07;3.25;;;25.50;94.20;;;;;;4973181;28;20702;-57
2022/07/20 00:13:05;;;;;;;7.53;3.58;;;25.50;94.30;;;;;;4961520;28;20051;-57
2022/07/20 00:15:31;;;;;;;9.05;3.15;;;25.40;94.50;;;;;;4961643;28;20055;-57
2022/07/20 00:17:56;;;;;;;5.30;3.33;;;25.40;94.50;;;;;;4961597;28;20047;-58
2022/07/20 00:20:22;;;;;;;4.93;3.28;;;25.40;94.20;;;;;;4961798;28;20051;-56
2022/07/20 00:22:48;;;;;;;5.95;3.10;;;25.30;94.30;;;;;;4962240;28;20066;-57
2022/07/20 00:25:14;;;;;;;5.90;3.25;;;25.30;94.40;;;;;;4962071;28;20541;-56
2022/07/20 00:27:39;;;;;;;5.72;3.67;;;25.20;94.50;;;;;;4960785;28;20117;-57
2022/07/20 00:30:06;;;;;;;6.72;3.20;;;25.20;94.40;;;;;;4962009;28;20345;-58
2022/07/20 00:32:37;;;;;;;10.52;3.67;;;25.20;94.40;;;;;;4962270;28;20794;-57
2022/07/20 00:35:04;;;;;;;9.77;3.85;;;25.10;94.50;;;;;;4960029;28;20513;-57
2022/07/20 00:37:30;;;;;;;9.13;3.17;;;25.10;94.60;;;;;;4961518;28;20058;-57
2022/07/20 00:39:55;;;;;;;6.60;3.20;;;25.00;94.60;;;;;;4961834;28;20203;-58
2022/07/20 00:42:21;;;;;;;7.47;3.20;;;24.90;94.90;;;;;;4961017;28;20046;-57
2022/07/20 00:44:47;;;;;;;10.23;3.15;;;24.80;94.80;;;;;;4961020;28;20050;-56
2022/07/20 00:47:12;;;;;;;6.70;3.17;;;24.80;95.10;;;;;;4962102;28;20039;-57
2022/07/20 00:49:38;;;;;;;9.57;3.42;;;24.70;95.10;;;;;;4961675;28;20552;-57
2022/07/20 00:52:04;;;;;;;5.78;3.30;;;24.70;95.10;;;;;;4961859;28;20065;-57
2022/07/20 00:54:30;;;;;;;6.85;3.42;;;24.70;94.90;;;;;;4960918;28;20062;-57
2022/07/20 00:56:56;;;;;;;7.65;3.40;;;24.70;94.90;;;;;;4961315;28;20047;-57
2022/07/20 00:59:22;;;;;;;5.78;3.38;;;24.60;95.30;;;;;;4961239;28;20047;-56
2022/07/20 01:01:48;;;;;;;5.07;3.25;;;24.60;95.00;;;;;;4961899;28;20039;-57
2022/07/20 01:04:13;;;;;;;8.00;3.63;;;24.60;95.00;;;;;;4963574;28;20049;-57
2022/07/20 01:06:39;;;;;;;8.95;3.25;;;24.60;95.00;;;;;;4980375;23;20073;-57
2022/07/20 01:09:05;;;;;;;5.07;2.92;;;24.50;94.80;;;;;;4981438;28;20514;-57
2022/07/20 01:11:33;;;;;;;9.05;3.50;;;24.50;94.90;;;;;;4983527;28;20038;-57
2022/07/20 01:14:07;;;;;;;6.07;3.60;;;24.50;94.60;;;;;;4963489;28;20054;-56
2022/07/20 01:16:34;;;;;;;6.63;3.67;;;24.60;94.90;;;;;;4965254;28;20097;-57
2022/07/20 01:19:00;;;;;;;7.22;3.33;;;24.50;94.90;;;;;;4964328;28;20042;-57
2022/07/20 01:21:26;;;;;;;7.47;3.10;;;24.50;94.60;;;;;;4964568;28;20110;-57
2022/07/20 01:23:51;;;;;;;8.07;3.33;;;24.50;94.70;;;;;;4965415;28;20047;-57
2022/07/20 01:26:19;;;;;;;12.80;3.92;;;24.40;94.80;;;;;;4964160;28;20074;-56
2022/07/20 01:28:46;;;;;;;6.05;3.45;;;24.40;95.00;;;;;;4965855;28;20238;-57
2022/07/20 01:31:12;;;;;;;5.97;3.30;;;24.60;94.80;;;;;;4964952;28;20047;-56
2022/07/20 01:33:37;;;;;;;7.25;3.53;;;24.40;94.70;;;;;;4965118;28;20121;-56
2022/07/20 01:36:04;;;;;;;6.25;3.17;;;24.40;94.90;;;;;;4964997;28;20126;-57
2022/07/20 01:38:30;;;;;;;9.02;3.35;;;24.40;94.80;;;;;;4964693;28;20113;-57
2022/07/20 01:40:55;;;;;;;9.27;3.97;;;24.30;95.00;;;;;;4963844;28;20405;-57
2022/07/20 01:43:21;;;;;;;8.13;3.55;;;24.20;95.00;;;;;;4964596;28;20046;-57
2022/07/20 01:45:47;;;;;;;7.43;3.20;;;24.20;95.10;;;;;;4964748;28;20054;-57
2022/07/20 01:48:13;;;;;;;7.40;3.38;;;24.10;95.00;;;;;;4963671;28;20097;-57
2022/07/20 01:50:39;;;;;;;7.10;2.97;;;24.10;95.20;;;;;;4964187;28;20051;-57
2022/07/20 01:53:08;;;;;;;8.85;3.67;;;24.10;95.20;;;;;;4965000;28;20121;-57
2022/07/20 01:55:34;;;;;;;6.10;3.83;;;24.00;95.20;;;;;;4963958;28;20043;-57
2022/07/20 01:58:00;;;;;;;5.35;3.03;;;24.00;95.30;;;;;;4962805;28;20105;-57
2022/07/20 02:00:26;;;;;;;7.00;3.28;;;23.90;95.40;;;;;;4964466;28;20461;-57
2022/07/20 02:02:52;;;;;;;7.75;3.30;;;23.90;95.50;;;;;;4964802;28;21270;-57
2022/07/20 02:05:18;;;;;;;7.22;3.67;;;23.70;95.60;;;;;;4964059;28;20574;-58
2022/07/20 02:07:45;;;;;;;10.98;3.42;;;23.70;95.90;;;;;;4970954;28;20062;-56
2022/07/20 02:10:12;;;;;;;7.80;3.00;;;23.70;95.90;;;;;;4964455;28;20142;-58
2022/07/20 02:12:39;;;;;;;6.22;3.35;;;23.60;95.90;;;;;;4963600;28;20043;-57
2022/07/20 02:15:08;;;;;;;6.63;3.00;;;23.50;96.30;;;;;;4963674;28;20055;-57
2022/07/20 02:17:33;;;;;;;6.20;3.50;;;23.50;96.30;;;;;;4963475;28;20130;-57
2022/07/20 02:19:59;;;;;;;8.38;3.53;;;23.40;96.40;;;;;;4964385;28;20125;-57
2022/07/20 02:22:25;;;;;;;7.90;3.38;;;23.30;96.40;;;;;;4962645;28;20047;-57
2022/07/20 02:24:51;;;;;;;9.02;3.53;;;23.20;96.40;;;;;;4964044;28;20445;-57
2022/07/20 02:27:17;;;;;;;9.55;3.47;;;23.30;96.50;;;;;;4962550;28;20133;-56
2022/07/20 02:29:43;;;;;;;5.85;3.33;;;23.20;96.40;;;;;;4964754;28;20043;-56
2022/07/20 02:32:08;;;;;;;8.00;3.42;;;23.20;96.50;;;;;;4964234;28;20051;-58
2022/07/20 02:34:34;;;;;;;6.28;3.15;;;23.20;96.50;;;;;;4962550;28;20046;-57
2022/07/20 02:37:00;;;;;;;8.00;3.78;;;23.20;96.30;;;;;;4963034;28;20580;-56
2022/07/20 02:39:25;;;;;;;7.72;3.55;;;23.20;96.40;;;;;;4962478;28;20047;-57
2022/07/20 02:41:51;;;;;;;8.65;3.97;;;23.20;96.50;;;;;;4963070;28;20113;-57
2022/07/20 02:44:17;;;;;;;7.03;3.50;;;23.20;96.40;;;;;;4962395;28;20057;-58
2022/07/20 02:46:42;;;;;;;4.82;3.53;;;23.20;96.30;;;;;;4963581;28;20057;-59
2022/07/20 02:49:08;;;;;;;7.50;3.53;;;23.10;96.50;;;;;;4979026;28;20046;-59
2022/07/20 02:51:34;;;;;;;10.90;3.55;;;23.00;96.80;;;;;;4962641;28;20050;-59
2022/07/20 02:53:59;;;;;;;11.07;3.60;;;23.00;96.70;;;;;;4963545;28;20042;-59
2022/07/20 02:56:25;;;;;;;8.45;3.50;;;23.00;96.80;;;;;;4962154;28;20039;-59
2022/07/20 02:58:51;;;;;;;8.23;4.00;;;23.00;96.70;;;;;;4963898;28;20042;-59
2022/07/20 03:01:16;;;;;;;8.43;3.60;;;23.10;96.40;;;;;;4962434;28;20050;-57
2022/07/20 03:03:42;;;;;;;5.72;3.58;;;23.00;96.40;;;;;;4963919;28;20082;-56
2022/07/20 03:06:09;;;;;;;9.63;3.60;;;23.00;96.60;;;;;;4964246;28;20093;-57
2022/07/20 03:08:35;;;;;;;5.65;3.70;;;23.00;96.30;;;;;;4971876;28;20077;-56
2022/07/20 03:11:01;;;;;;;10.80;3.60;;;23.00;96.50;;;;;;4962664;28;20139;-58
2022/07/20 03:13:26;;;;;;;5.75;3.90;;;22.90;96.60;;;;;;4962629;28;20837;-57
2022/07/20 03:15:52;;;;;;;7.72;3.80;;;22.90;96.70;;;;;;4963534;28;20039;-55
2022/07/20 03:18:18;;;;;;;5.30;3.28;;;22.80;96.70;;;;;;4963154;28;20054;-57
2022/07/20 03:20:44;;;;;;;10.50;3.50;;;22.80;96.50;;;;;;4963718;28;20390;-57
2022/07/20 03:23:10;;;;;;;7.38;3.45;;;22.80;96.50;;;;;;4962480;28;20047;-57
2022/07/20 03:25:35;;;;;;;7.05;3.95;;;22.80;96.70;;;;;;4962110;28;20106;-56
2022/07/20 03:28:01;;;;;;;6.70;3.33;;;22.80;96.60;;;;;;4962937;28;20038;-57
2022/07/20 03:30:28;;;;;;;6.75;3.67;;;22.70;96.90;;;;;;4962820;28;20075;-56
2022/07/20 03:32:54;;;;;;;8.63;3.50;;;22.60;96.90;;;;;;4962529;28;20490;-56
2022/07/20 03:35:20;;;;;;;5.68;3.38;;;22.70;96.90;;;;;;4962048;28;20042;-56
2022/07/20 03:37:46;;;;;;;8.85;3.63;;;22.60;96.80;;;;;;4962452;28;20081;-57
2022/07/20 03:40:12;;;;;;;5.22;3.78;;;22.70;96.80;;;;;;4961064;28;20549;-57
2022/07/20 03:42:38;;;;;;;7.30;3.70;;;22.60;96.90;;;;;;4962268;28;20133;-59
2022/07/20 03:45:04;;;;;;;7.50;3.50;;;22.70;96.70;;;;;;4962629;28;20185;-59
2022/07/20 03:47:31;;;;;;;4.60;3.20;;;22.70;96.90;;;;;;4961231;28;20193;-59
2022/07/20 03:49:56;;;;;;;7.45;3.92;;;22.60;96.80;;;;;;4962506;28;20069;-57
2022/07/20 03:52:23;;;;;;;8.77;3.58;;;22.60;96.70;;;;;;4961653;28;20649;-59
2022/07/20 03:54:48;;;;;;;6.38;3.80;;;22.50;96.90;;;;;;4962613;28;20545;-59
2022/07/20 03:57:14;;;;;;;6.40;3.95;;;22.60;96.90;;;;;;4962365;28;20077;-60
2022/07/20 03:59:40;;;;;;;10.27;3.80;;;22.60;97.10;;;;;;4962609;28;20082;-59
2022/07/20 04:02:05;;;;;;;7.57;3.53;;;22.50;97.30;;;;;;4962037;28;20514;-59
2022/07/20 04:04:32;;;;;;;5.80;3.75;;;22.50;97.20;;;;;;4961960;28;20054;-59
2022/07/20 04:06:58;;;;;;;6.90;3.40;;;22.40;97.20;;;;;;4965652;28;20505;-58
2022/07/20 04:12:10;;;;;;;7.47;3.92;;;22.30;97.50;;;;;;4961739;28;20043;-58
2022/07/20 04:14:36;;;;;;;7.38;3.40;;;22.30;97.60;;;;;;4961978;28;20061;-59
2022/07/20 04:17:01;;;;;;;7.47;3.83;;;22.20;97.90;;;;;;4962094;28;20042;-59
2022/07/20 04:19:27;;;;;;;8.52;3.60;;;22.20;98.40;;;;;;4961794;28;20109;-59
2022/07/20 04:21:59;;;;;;;5.93;3.35;;;22.20;98.10;;;;;;4962617;28;20122;-59
2022/07/20 04:24:25;;;;;;;6.57;3.83;;;22.10;98.70;;;;;;4961747;28;20074;-56
2022/07/20 04:26:51;;;;;;;6.97;3.75;;;22.10;98.40;;;;;;4961137;28;20043;-56
2022/07/20 04:29:17;;;;;;;5.82;3.60;;;22.10;98.50;;;;;;4960249;28;20046;-55
2022/07/20 04:31:43;;;;;;;5.68;4.07;;;22.10;98.20;;;;;;4962560;28;20047;-57
2022/07/20 04:34:08;;;;;;;5.55;4.15;;;22.10;98.20;;;;;;4962242;28;20116;-57
2022/07/20 04:36:34;;;;;;;8.82;3.80;;;22.30;98.60;;;;;;4960944;28;20097;-55
2022/07/20 04:39:00;;;;;;;5.60;3.35;;;22.20;98.30;;;;;;4961395;28;20054;-57
2022/07/20 04:41:25;;;;;;;7.43;3.58;;;22.20;98.40;;;;;;4961005;28;20050;-56
2022/07/20 04:43:51;;;;;;;9.48;3.67;;;22.20;98.50;;;;;;4962083;28;20047;-57
2022/07/20 04:46:17;;;;;;;10.88;4.22;;;22.20;98.60;;;;;;4960783;28;20047;-57
2022/07/20 04:48:42;;;;;;;7.22;3.95;;;22.30;98.60;;;;;;4962049;28;20035;-58
2022/07/20 04:51:08;;;;;;;9.88;3.90;;;22.40;98.60;;;;;;4960681;28;20050;-59
2022/07/20 04:53:34;;;;;;;9.38;3.85;;;22.70;98.30;;;;;;4961830;28;20042;-58
2022/07/20 04:55:59;;;;;;;7.18;4.05;;;23.30;98.00;;;;;;4959277;28;20077;-58
2022/07/20 04:58:25;;;;;;;9.32;4.07;;;23.70;97.50;;;;;;4961523;28;20486;-58
2022/07/20 05:00:51;;;;;;;6.72;4.00;;;23.90;97.20;;;;;;4962248;28;20046;-58
2022/07/20 05:03:17;;;;;;;10.68;3.97;;;24.10;96.90;;;;;;4961658;28;20114;-59
2022/07/20 05:05:42;;;;;;;10.00;4.15;;;24.50;96.70;;;;;;4962124;28;20053;-58
2022/07/20 05:08:08;;;;;;;9.77;3.95;;;24.70;96.50;;;;;;4972175;28;20050;-58
2022/07/20 05:10:35;;;;;;;8.13;3.88;;;25.00;96.40;;;;;;4960659;28;20054;-58
2022/07/20 05:13:01;;;;;;;8.98;4.05;;;25.10;96.10;;;;;;4962015;28;20031;-58
2022/07/20 05:15:26;;;;;;;8.88;4.00;;;25.00;96.00;;;;;;4961075;28;20078;-57
2022/07/20 05:17:52;;;;;;;8.95;4.15;;;25.10;96.00;;;;;;4961972;28;20026;-57
2022/07/20 05:20:19;;;;;;;10.43;4.03;;;24.90;95.80;;;;;;4960119;28;20055;-57
2022/07/20 05:22:44;;;;;;;7.28;3.97;;;24.80;95.90;;;;;;4962173;28;20112;-58
2022/07/20 05:25:10;;;;;;;8.98;3.53;;;25.10;95.90;;;;;;4960178;28;20043;-57
2022/07/20 05:27:36;;;;;;;9.10;4.18;;;25.40;95.90;;;;;;4960147;28;20054;-58
2022/07/20 05:30:02;;;;;;;6.38;3.80;;;25.40;95.90;;;;;;4960773;28;20078;-58
2022/07/20 05:32:28;;;;;;;7.60;4.05;;;25.20;95.90;;;;;;4961344;28;20054;-58
2022/07/20 05:34:54;;;;;;;7.60;3.67;;;25.10;95.90;;;;;;4961201;28;20042;-58
2022/07/20 05:37:20;;;;;;;8.13;3.90;;;25.20;96.10;;;;;;4959519;28;20093;-59
2022/07/20 05:39:45;;;;;;;5.25;3.60;;;25.60;95.90;;;;;;4961488;28;20113;-59
2022/07/20 05:42:11;;;;;;;6.05;3.90;;;25.40;96.00;;;;;;4961013;28;20497;-58
2022/07/20 05:44:37;;;;;;;6.55;3.90;;;25.60;96.00;;;;;;4960668;28;20061;-57
2022/07/20 05:47:03;;;;;;;4.78;3.40;;;25.60;96.30;;;;;;4961476;28;20405;-58
2022/07/20 05:49:28;;;;;;;6.75;3.75;;;25.60;96.10;;;;;;4961117;28;20035;-58
2022/07/20 05:51:54;;;;;;;7.40;3.97;;;25.60;95.90;;;;;;4963072;28;20051;-58
2022/07/20 05:54:20;;;;;;;7.60;4.13;;;25.50;96.10;;;;;;4964197;28;20042;-58
2022/07/20 05:56:45;;;;;;;11.38;4.00;;;25.80;96.00;;;;;;4964192;28;20043;-58
2022/07/20 05:59:11;;;;;;;8.13;3.80;;;26.00;96.20;;;;;;4964830;28;20058;-57
2022/07/20 06:01:38;;;;;;;8.18;3.90;;;26.00;95.90;;;;;;4964592;28;20058;-57
2022/07/20 06:04:03;;;;;;;7.32;3.65;;;26.10;96.10;;;;;;4963562;28;20426;-58
2022/07/20 06:06:29;;;;;;;6.20;3.60;;;25.90;96.00;;;;;;4966380;28;20062;-58
2022/07/20 06:08:55;;;;;;;5.82;3.72;;;26.00;96.00;;;;;;4973162;28;20050;-58
2022/07/20 06:11:20;;;;;;;6.30;4.10;;;25.90;96.10;;;;;;4962772;28;20046;-58
2022/07/20 06:13:46;;;;;;;7.95;4.50;;;26.00;96.20;;;;;;4964647;28;20487;-59
2022/07/20 06:16:12;;;;;;;9.93;4.35;;;26.00;96.20;;;;;;4964739;28;20401;-58
2022/07/20 06:18:39;;;;;;;7.35;3.83;;;25.90;96.10;;;;;;4964436;28;20459;-58
2022/07/20 06:21:04;;;;;;;7.18;4.00;;;26.20;96.30;;;;;;4963842;28;20051;-58
2022/07/20 06:23:30;;;;;;;7.07;4.03;;;26.30;96.40;;;;;;4963948;28;20543;-57
2022/07/20 06:25:55;;;;;;;5.25;3.80;;;26.30;96.40;;;;;;4963337;28;20081;-58
2022/07/20 06:28:21;;;;;;;7.45;3.92;;;26.70;96.30;;;;;;4963714;28;20038;-58
2022/07/20 06:30:47;;;;;;;6.18;4.20;;;26.70;96.10;;;;;;4963781;28;20046;-58
2022/07/20 06:33:12;;;;;;;6.40;3.90;;;26.90;96.40;;;;;;4964402;28;20162;-57
2022/07/20 06:35:38;;;;;;;6.25;3.85;;;27.30;96.30;;;;;;4964036;28;20074;-57
2022/07/20 06:38:04;;;;;;;6.03;4.13;;;27.00;96.30;;;;;;4962303;28;20541;-57
2022/07/20 06:40:30;;;;;;;6.82;4.13;;;26.80;96.70;;;;;;4962352;28;20093;-58
2022/07/20 06:42:55;;;;;;;5.55;4.20;;;26.90;96.50;;;;;;4963834;28;20137;-57
2022/07/20 06:45:21;;;;;;;8.45;3.70;;;27.10;96.40;;;;;;4963725;28;20142;-58
2022/07/20 06:47:47;;;;;;;7.85;4.18;;;27.10;96.70;;;;;;4964015;28;20619;-58
2022/07/20 06:50:12;;;;;;;10.40;4.43;;;27.40;96.60;;;;;;4962134;28;20082;-57
2022/07/20 06:52:38;;;;;;;6.70;4.07;;;27.30;96.50;;;;;;4963499;28;20082;-57
2022/07/20 06:55:05;;;;;;;7.22;4.10;;;27.30;96.90;;;;;;4963129;28;20413;-57
2022/07/20 06:57:31;;;;;;;6.28;3.80;;;27.40;96.70;;;;;;4963625;28;20417;-58
2022/07/20 06:59:57;;;;;;;5.28;4.47;;;27.50;96.80;;;;;;4963324;28;20046;-57
2022/07/20 07:02:22;;;;;;;10.27;4.40;;;27.60;96.60;;;;;;4945632;28;20042;-57
2022/07/20 07:04:48;;;;;;;6.32;4.05;;;27.80;96.60;;;;;;4978616;28;20485;-56
2022/07/20 07:07:14;;;;;;;8.32;4.20;;;28.10;96.40;;;;;;4970721;28;20062;-58
2022/07/20 07:09:40;;;;;;;7.03;3.80;;;28.00;96.40;;;;;;4965561;28;20062;-57
2022/07/20 07:12:06;;;;;;;6.35;3.97;;;28.00;96.20;;;;;;4963167;28;20058;-58
2022/07/20 07:14:31;;;;;;;8.82;4.10;;;28.10;95.70;;;;;;4966068;28;20035;-58
2022/07/20 07:16:57;;;;;;;7.85;4.55;;;28.30;95.90;;;;;;4986488;28;20189;-58
2022/07/20 07:19:23;;;;;;;6.78;4.25;;;28.30;95.70;;;;;;4981800;28;20100;-57
2022/07/20 07:21:48;;;;;;;6.32;4.00;;;28.40;95.60;;;;;;4981191;28;20076;-58
2022/07/20 07:24:14;;;;;;;7.25;3.97;;;28.70;95.60;;;;;;4982672;28;20516;-57
2022/07/20 07:26:40;;;;;;;5.03;4.13;;;28.70;95.80;;;;;;4981318;28;20162;-57
2022/07/20 07:29:05;;;;;;;6.65;3.83;;;29.00;95.50;;;;;;4981818;28;20061;-58
2022/07/20 07:31:31;;;;;;;8.40;4.60;;;29.10;95.10;;;;;;4982094;28;20409;-57
2022/07/20 07:33:57;;;;;;;9.10;4.47;;;28.90;94.80;;;;;;4982327;28;20599;-58
2022/07/20 07:36:23;;;;;;;5.10;3.90;;;28.90;94.60;;;;;;4981338;28;20077;-58
2022/07/20 07:38:48;;;;;;;10.90;4.68;;;29.00;95.10;;;;;;4981409;28;20070;-58
2022/07/20 07:41:14;;;;;;;8.95;4.25;;;29.30;95.10;;;;;;4981449;28;20046;-57
2022/07/20 07:43:39;;;;;;;10.38;5.00;;;29.30;94.80;;;;;;4982150;28;20078;-57
2022/07/20 07:46:05;;;;;;;6.03;4.18;;;29.00;94.60;;;;;;4982199;28;20054;-57
2022/07/20 07:48:31;;;;;;;5.60;3.97;;;29.20;94.90;;;;;;4981168;28;20038;-58
2022/07/20 07:50:57;;;;;;;5.38;4.32;;;29.00;94.50;;;;;;4981895;28;20069;-58
2022/07/20 07:53:22;;;;;;;11.20;4.90;;;29.00;94.70;;;;;;4981586;28;20688;-57
2022/07/20 07:55:48;;;;;;;7.07;4.53;;;29.00;94.40;;;;;;4979709;28;20038;-58
2022/07/20 07:58:14;;;;;;;10.40;4.63;;;29.10;94.70;;;;;;4981515;28;20096;-58
2022/07/20 08:00:40;;;;;;;8.90;4.97;;;29.30;95.00;;;;;;4981749;28;20038;-56
2022/07/20 08:03:06;;;;;;;7.13;4.63;;;29.20;95.00;;;;;;4981791;28;20050;-57
2022/07/20 08:05:32;;;;;;;9.13;5.07;;;29.00;94.60;;;;;;4981488;28;20046;-57
2022/07/20 08:08:08;;;;;;;6.35;5.07;;;29.00;94.30;;;;;;4965004;28;20046;-55
2022/07/20 08:10:34;;;;;;;7.53;5.43;;;29.00;94.60;;;;;;4994742;28;20049;-57
2022/07/20 08:12:59;;;;;;;7.28;4.93;;;29.10;95.10;;;;;;4982089;28;20042;-58
2022/07/20 08:15:25;;;;;;;8.18;5.05;;;29.50;95.30;;;;;;4980052;28;20567;-56
2022/07/20 08:17:51;;;;;;;6.90;5.05;;;29.70;95.50;;;;;;4980819;28;20068;-56
2022/07/20 08:20:21;;;;;;;9.55;5.43;;;29.50;95.00;;;;;;4980513;28;20053;-55
2022/07/20 08:22:47;;;;;;;6.57;5.57;;;29.40;95.10;;;;;;4980899;28;20057;-57
2022/07/20 08:25:13;;;;;;;9.18;5.03;;;29.40;95.30;;;;;;4979525;28;20042;-57
2022/07/20 08:27:39;;;;;;;9.77;5.00;;;29.60;95.60;;;;;;4980602;28;20682;-57
2022/07/20 08:30:05;;;;;;;11.02;5.05;;;29.60;95.90;;;;;;4981069;28;20046;-56
2022/07/20 08:32:31;;;;;;;8.88;5.13;;;29.60;95.90;;;;;;4980732;28;20141;-57
2022/07/20 08:34:57;;;;;;;6.72;4.80;;;29.70;96.00;;;;;;4980200;28;20043;-57
2022/07/20 08:37:23;;;;;;;8.98;5.50;;;29.70;96.00;;;;;;4979132;28;20045;-57
2022/07/20 08:39:49;;;;;;;6.93;5.70;;;29.30;96.30;;;;;;4980394;28;20042;-57
2022/07/20 08:42:15;;;;;;;8.88;5.88;;;29.50;96.10;;;;;;4981280;28;20122;-57
2022/07/20 08:44:41;;;;;;;7.00;5.25;;;29.60;96.10;;;;;;4980811;28;20687;-56
2022/07/20 08:47:11;;;;;;;8.90;6.57;;;29.40;95.70;;;;;;4980993;28;20093;-57
2022/07/20 08:49:38;;;;;;;9.38;5.70;;;29.50;96.10;;;;;;4980572;28;20050;-56
2022/07/20 08:52:04;;;;;;;10.63;6.28;;;29.60;96.20;;;;;;4979298;28;20057;-57
2022/07/20 08:54:31;;;;;;;8.85;5.75;;;29.60;96.20;;;;;;4977634;28;20768;-57
2022/07/20 08:56:57;;;;;;;10.98;6.30;;;29.50;96.30;;;;;;4981215;28;20045;-57
2022/07/20 08:59:23;;;;;;;13.10;6.40;;;29.60;96.60;;;;;;4980850;28;20461;-57
2022/07/20 09:02:00;;;;;;;11.52;7.55;;;29.90;96.90;;;;;;4981141;28;20049;-57
2022/07/20 09:04:26;;;;;;;13.85;7.75;;;29.90;97.00;;;;;;4979596;28;20515;-56
2022/07/20 09:06:52;;;;;;;12.00;7.10;;;30.00;97.10;;;;;;4974814;28;20050;-57
2022/07/20 09:09:19;;;;;;;16.67;8.02;;;30.00;97.10;;;;;;4966926;28;20477;-57
2022/07/20 09:11:45;;;;;;;25.85;9.57;;;30.20;97.50;;;;;;4961389;28;20100;-57
2022/07/20 09:14:12;;;;;;;13.63;8.60;;;30.10;97.60;;;;;;4961981;28;20714;-57
2022/07/20 09:16:46;;;;;;;15.40;9.15;;;30.40;97.70;;;;;;4960159;28;20047;-56
2022/07/20 09:19:16;;;;;;;18.35;9.35;;;30.30;97.90;;;;;;4961172;28;20077;-57
2022/07/20 09:21:43;;;;;;;17.35;9.00;;;30.20;98.50;;;;;;4961661;28;20054;-57
2022/07/20 09:24:10;;;;;;;15.18;10.18;;;30.50;98.30;;;;;;4961477;28;20166;-57
2022/07/20 09:26:37;;;;;;;18.45;10.68;;;30.50;98.50;;;;;;4963939;28;20115;-57
2022/07/20 09:29:06;;;;;;;15.68;12.02;;;30.60;98.70;;;;;;4962662;28;20077;-57
2022/07/20 09:31:33;;;;;;;18.48;12.32;;;30.30;99.00;;;;;;4964636;28;20054;-57
2022/07/20 09:34:02;;;;;;;18.08;12.98;;;30.40;99.70;;;;;;4964823;28;20112;-57
2022/07/20 09:36:30;;;;;;;16.60;13.43;;;30.80;99.90;;;;;;4964193;28;20047;-57
2022/07/20 09:39:10;;;;;;;19.75;14.88;;;30.50;99.90;;;;;;4964938;28;20065;-58
2022/07/20 09:41:39;;;;;;;17.75;15.25;;;30.50;99.90;;;;;;4964541;28;20623;-57
2022/07/20 09:44:05;;;;;;;23.05;16.15;;;30.30;99.90;;;;;;4976327;28;20061;-57
2022/07/20 09:46:34;;;;;;;17.92;15.77;;;30.40;99.90;;;;;;4984241;28;20054;-57
2022/07/20 09:49:10;;;;;;;20.67;16.83;;;30.70;99.90;;;;;;4983895;28;20121;-56
2022/07/20 09:51:39;;;;;;;25.55;17.70;;;30.70;99.90;;;;;;4983159;28;20073;-57
2022/07/20 09:54:06;;;;;;;22.83;16.73;;;30.80;99.90;;;;;;4984572;28;20062;-57
2022/07/20 09:56:35;;;;;;;24.02;17.42;;;30.60;99.90;;;;;;4983180;28;20046;-56
2022/07/20 09:59:04;;;;;;;21.80;16.55;;;30.50;99.90;;;;;;4984056;28;20120;-57
2022/07/20 10:01:35;;;;;;;24.73;18.88;;;30.40;99.90;;;;;;4983829;28;20137;-56
2022/07/20 10:04:06;;;;;;;23.35;17.48;;;30.10;99.90;;;;;;4984072;28;20046;-57
2022/07/20 10:06:34;;;;;;;26.02;20.77;;;30.00;99.90;;;;;;4978228;28;20399;-57
2022/07/20 10:08:59;;;;;;;25.60;19.95;;;30.40;99.90;;;;;;4972481;28;20077;-56
2022/07/20 10:11:26;;;;;;;25.08;18.63;;;30.70;99.90;;;;;;4963222;28;20046;-57
2022/07/20 10:13:54;;;;;;;20.17;17.75;;;30.70;99.90;;;;;;4964717;28;20039;-50
2022/07/20 10:16:46;;;;;;;24.75;19.00;;;30.70;99.90;;;;;;4963263;28;20051;-57
2022/07/20 10:19:11;;;;;;;26.17;19.95;;;30.60;99.90;;;;;;4964458;28;20054;-57
2022/07/20 10:21:40;;;;;;;27.02;19.88;;;30.60;99.90;;;;;;4964091;28;20042;-57
2022/07/20 10:24:27;;;;;;;26.73;20.98;;;30.80;99.90;;;;;;4961822;28;20046;-55
2022/07/20 10:27:08;;;;;;;28.58;20.90;;;31.10;99.90;;;;;;4962876;28;20046;-57
2022/07/20 10:29:36;;;;;;;24.23;19.50;;;31.00;99.90;;;;;;4962824;28;20137;-57
2022/07/20 10:32:25;;;;;;;25.85;20.45;;;31.10;99.90;;;;;;4963939;28;20053;-57
2022/07/20 10:35:03;;;;;;;27.52;19.17;;;31.60;99.90;;;;;;4963682;28;20042;-58
2022/07/20 10:37:37;;;;;;;23.55;19.23;;;31.90;99.90;;;;;;4962719;28;20226;-57
2022/07/20 10:40:02;;;;;;;;;;;31.80;99.90;;;;;;4961829;28;20043;-57
2022/07/20 10:42:33;;;;;;;22.35;19.42;;;31.90;99.90;;;;;;4963630;28;19972;-57
2022/07/20 10:45:20;;;;;;;23.33;17.92;;;32.00;99.90;;;;;;4964366;28;20055;-57
2022/07/20 10:47:51;;;;;;;26.27;18.92;;;31.60;99.90;;;;;;4961800;28;20054;-57
2022/07/20 10:50:23;;;;;;;23.58;18.75;;;31.50;99.90;;;;;;4963330;28;20052;-58
2022/07/20 10:52:53;;;;;;;24.73;18.38;;;31.50;99.90;;;;;;4963922;28;20046;-57
2022/07/20 10:55:33;;;;;;;23.92;19.00;;;31.50;99.90;;;;;;4962014;28;20050;-57
2022/07/20 10:58:00;;;;;;;23.23;19.67;;;31.10;99.90;;;;;;4963637;28;20050;-57
2022/07/20 11:00:43;;;;;;;23.63;20.15;;;31.30;99.90;;;;;;4963249;28;20047;-57
2022/07/20 11:03:35;;;;;;;21.67;16.20;;;31.60;99.90;;;;;;4963502;28;20054;-57
2022/07/20 11:06:07;;;;;;;26.58;18.50;;;31.30;99.90;;;;;;4964792;28;20108;-57
2022/07/20 11:08:34;;;;;;;22.25;17.50;;;31.10;99.70;;;;;;4969604;28;20572;-57
2022/07/20 11:11:01;;;;;;;22.17;16.85;;;31.00;99.40;;;;;;4982090;28;20072;-57
2022/07/20 11:13:27;;;;;;;19.20;16.65;;;31.40;99.50;;;;;;4981875;28;20081;-57
2022/07/20 11:15:58;;;;;;;18.20;15.50;;;31.50;98.50;;;;;;4982450;28;20078;-57
2022/07/20 11:18:27;;;;;;;19.05;15.68;;;31.70;98.90;;;;;;4982274;28;20686;-57
2022/07/20 11:20:55;;;;;;;17.92;15.05;;;32.10;98.40;;;;;;4982722;28;20050;-57
2022/07/20 11:23:23;;;;;;;17.27;15.18;;;32.20;97.80;;;;;;4981447;28;20539;-57
2022/07/20 11:25:52;;;;;;;17.02;14.98;;;32.20;98.00;;;;;;4981669;28;20459;-57
2022/07/20 11:28:38;;;;;;;18.70;15.88;;;32.50;98.00;;;;;;4981698;28;20126;-58
2022/07/20 11:31:08;;;;;;;16.80;15.10;;;32.80;97.80;;;;;;4982347;28;20097;-57
2022/07/20 11:33:36;;;;;;;17.95;15.70;;;32.50;98.20;;;;;;4980642;28;20054;-56
2022/07/20 11:36:24;;;;;;;22.30;15.23;;;32.40;97.60;;;;;;4981640;28;20053;-57
2022/07/20 11:38:52;;;;;;;20.25;14.48;;;32.70;97.70;;;;;;4981532;28;20054;-57
2022/07/20 11:41:28;;;;;;;15.57;13.98;;;32.30;97.60;;;;;;4981918;28;20050;-57
2022/07/20 11:43:54;;;;;;;18.45;14.38;;;32.00;97.30;;;;;;4982080;28;20080;-57
2022/07/20 11:46:25;;;;;;;16.13;13.20;;;31.30;97.20;;;;;;4981320;28;20054;-56
2022/07/20 11:48:56;;;;;;;15.57;13.48;;;31.40;97.50;;;;;;4981122;28;20050;-57
2022/07/20 11:51:22;;;;;;;18.42;12.50;;;31.30;97.40;;;;;;4981490;28;20050;-57
2022/07/20 11:53:48;;;;;;;17.23;12.65;;;31.50;97.40;;;;;;4982375;28;20046;-56
2022/07/20 11:56:20;;;;;;;15.25;11.52;;;31.70;97.20;;;;;;4981599;28;20046;-56
2022/07/20 11:58:50;;;;;;;15.98;11.52;;;31.90;96.60;;;;;;4981361;28;20133;-58
2022/07/20 12:01:23;;;;;;;15.80;12.07;;;32.00;96.90;;;;;;4981533;28;20057;-57
2022/07/20 12:03:55;;;;;;;15.02;12.15;;;32.00;97.70;;;;;;4981625;28;20548;-57
2022/07/20 12:06:22;;;;;;;14.50;11.15;;;32.10;97.70;;;;;;4977675;28;20070;-57
2022/07/20 12:09:07;;;;;;;12.27;10.32;;;31.90;96.90;;;;;;4972436;28;20047;-58
2022/07/20 12:11:34;;;;;;;11.85;10.10;;;32.00;97.20;;;;;;4981076;28;20046;-57
2022/07/20 12:14:00;;;;;;;12.55;9.68;;;31.70;96.90;;;;;;4981410;28;20058;-57
2022/07/20 12:16:40;;;;;;;11.27;9.45;;;31.60;97.00;;;;;;4981040;28;20541;-57
2022/07/20 12:19:06;;;;;;;14.13;9.95;;;31.60;96.90;;;;;;4980995;28;20516;-57
2022/07/20 12:21:43;;;;;;;12.05;9.27;;;31.80;97.50;;;;;;4981139;28;20054;-57
2022/07/20 12:24:08;;;;;;;12.05;9.45;;;31.30;97.00;;;;;;4980704;28;20090;-57
2022/07/20 12:26:35;;;;;;;12.07;8.98;;;31.30;97.20;;;;;;4980988;28;20136;-57
2022/07/20 12:29:23;;;;;;;13.75;9.35;;;31.50;97.40;;;;;;4977497;28;20050;-56
2022/07/20 12:32:01;;;;;;;13.35;9.90;;;31.40;97.50;;;;;;4980209;28;20061;-56
2022/07/20 12:34:28;;;;;;;11.25;9.10;;;31.70;97.50;;;;;;4969115;28;20086;-57
2022/07/20 12:36:53;;;;;;;14.63;9.88;;;31.80;97.60;;;;;;4979495;28;20054;-57
2022/07/20 12:39:38;;;;;;;12.57;10.50;;;31.80;97.40;;;;;;4979167;28;20053;-56
2022/07/20 12:42:27;;;;;;;12.73;9.82;;;31.50;97.50;;;;;;4970146;28;20129;-56
2022/07/20 12:44:58;;;;;;;13.32;9.60;;;31.90;97.80;;;;;;4969033;28;20038;-57
2022/07/20 12:47:24;;;;;;;13.38;10.15;;;32.20;97.70;;;;;;4980283;28;20056;-57